sensor_id;sensor_type;location;lat;lon;timestamp;pressure;altitude;pressure_sealevel;temperature;humidity
77360;BME280;66426;51.454;7.266;2023-05-20T00:00:16;100824.19;;;13.18;62.09
77360;BME280;66426;51.454;7.266;2023-05-20T00:01:17;100828.28;;;13.08;62.62
77360;BME280;66426;51.454;7.266;2023-05-20T00:02:18;100827.50;;;13.06;62.17
77360;BME280;66426;51.454;7.266;2023-05-20T00:03:19;100818.75;;;13.01;62.22
77360;BME280;66426;51.454;7.266;2023-05-20T00:04:21;100820.25;;;13.06;62.24
77360;BME280;66426;51.454;7.266;2023-05-20T00:05:22;100818.00;;;12.97;62.29
77360;BME280;66426;51.454;7.266;2023-05-20T00:06:23;100820.28;;;12.87;63.12
77360;BME280;66426;51.454;7.266;2023-05-20T00:07:24;100821.69;;;12.96;62.11
77360;BME280;66426;51.454;7.266;2023-05-20T00:08:25;100821.09;;;12.89;62.26
77360;BME280;66426;51.454;7.266;2023-05-20T00:09:26;100820.56;;;13.00;62.54
77360;BME280;66426;51.454;7.266;2023-05-20T00:10:29;100819.84;;;12.97;62.08
77360;BME280;66426;51.454;7.266;2023-05-20T00:11:30;100816.16;;;12.98;62.25
77360;BME280;66426;51.454;7.266;2023-05-20T00:12:31;100810.22;;;12.91;62.31
77360;BME280;66426;51.454;7.266;2023-05-20T00:13:32;100816.72;;;12.87;62.68
77360;BME280;66426;51.454;7.266;2023-05-20T00:14:35;100815.84;;;12.86;63.23
77360;BME280;66426;51.454;7.266;2023-05-20T00:15:36;100813.34;;;13.01;61.99
77360;BME280;66426;51.454;7.266;2023-05-20T00:16:37;100822.28;;;12.84;62.50
77360;BME280;66426;51.454;7.266;2023-05-20T00:17:38;100814.72;;;12.73;62.81
77360;BME280;66426;51.454;7.266;2023-05-20T00:18:39;100816.13;;;12.80;62.36
77360;BME280;66426;51.454;7.266;2023-05-20T00:19:41;100823.31;;;12.81;62.61
77360;BME280;66426;51.454;7.266;2023-05-20T00:20:42;100820.06;;;12.92;62.57
77360;BME280;66426;51.454;7.266;2023-05-20T00:21:43;100816.16;;;12.98;62.17
77360;BME280;66426;51.454;7.266;2023-05-20T00:22:44;100818.88;;;12.98;62.92
77360;BME280;66426;51.454;7.266;2023-05-20T00:23:44;100822.31;;;13.01;62.61
77360;BME280;66426;51.454;7.266;2023-05-20T00:24:45;100815.69;;;12.89;63.05
77360;BME280;66426;51.454;7.266;2023-05-20T00:25:46;100818.50;;;12.69;64.03
77360;BME280;66426;51.454;7.266;2023-05-20T00:26:47;100822.56;;;12.78;63.06
77360;BME280;66426;51.454;7.266;2023-05-20T00:27:48;100816.59;;;12.71;63.38
77360;BME280;66426;51.454;7.266;2023-05-20T00:28:49;100824.81;;;12.50;64.19
77360;BME280;66426;51.454;7.266;2023-05-20T00:29:50;100826.13;;;12.61;63.85
77360;BME280;66426;51.454;7.266;2023-05-20T00:30:50;100822.06;;;12.69;63.41
77360;BME280;66426;51.454;7.266;2023-05-20T00:31:51;100823.69;;;12.73;63.25
77360;BME280;66426;51.454;7.266;2023-05-20T00:32:52;100819.75;;;12.81;62.61
77360;BME280;66426;51.454;7.266;2023-05-20T00:33:53;100823.31;;;12.81;62.48
77360;BME280;66426;51.454;7.266;2023-05-20T00:34:56;100824.53;;;12.93;62.26
77360;BME280;66426;51.454;7.266;2023-05-20T00:35:57;100824.44;;;12.94;62.20
77360;BME280;66426;51.454;7.266;2023-05-20T00:36:58;100821.78;;;12.76;63.14
77360;BME280;66426;51.454;7.266;2023-05-20T00:37:59;100823.09;;;12.86;62.55
77360;BME280;66426;51.454;7.266;2023-05-20T00:39:00;100820.59;;;12.81;62.69
77360;BME280;66426;51.454;7.266;2023-05-20T00:40:01;100820.47;;;12.65;63.07
77360;BME280;66426;51.454;7.266;2023-05-20T00:41:02;100823.69;;;12.55;64.21
77360;BME280;66426;51.454;7.266;2023-05-20T00:42:04;100816.88;;;12.65;63.63
77360;BME280;66426;51.454;7.266;2023-05-20T00:43:05;100821.78;;;12.76;63.29
77360;BME280;66426;51.454;7.266;2023-05-20T00:44:06;100817.81;;;12.83;63.47
77360;BME280;66426;51.454;7.266;2023-05-20T00:45:07;100816.72;;;12.87;62.57
77360;BME280;66426;51.454;7.266;2023-05-20T00:46:09;100807.31;;;12.77;63.32
77360;BME280;66426;51.454;7.266;2023-05-20T00:47:10;100821.63;;;12.79;62.96
77360;BME280;66426;51.454;7.266;2023-05-20T00:48:11;100818.06;;;12.78;64.05
77360;BME280;66426;51.454;7.266;2023-05-20T00:49:13;100813.59;;;12.77;63.21
77360;BME280;66426;51.454;7.266;2023-05-20T00:50:16;100813.97;;;12.69;63.05
77360;BME280;66426;51.454;7.266;2023-05-20T00:51:17;100819.09;;;12.76;63.21
77360;BME280;66426;51.454;7.266;2023-05-20T00:52:18;100816.72;;;12.68;62.80
77360;BME280;66426;51.454;7.266;2023-05-20T00:53:20;100816.25;;;12.60;64.25
77360;BME280;66426;51.454;7.266;2023-05-20T00:54:21;100818.38;;;12.53;64.24
77360;BME280;66426;51.454;7.266;2023-05-20T00:55:22;100822.66;;;12.57;63.70
77360;BME280;66426;51.454;7.266;2023-05-20T00:56:23;100815.88;;;12.67;63.84
77360;BME280;66426;51.454;7.266;2023-05-20T00:57:24;100818.19;;;12.75;63.53
77360;BME280;66426;51.454;7.266;2023-05-20T00:58:26;100822.31;;;12.46;64.49
77360;BME280;66426;51.454;7.266;2023-05-20T00:59:27;100818.97;;;12.41;64.71
77360;BME280;66426;51.454;7.266;2023-05-20T01:00:28;100815.53;;;12.37;64.84
77360;BME280;66426;51.454;7.266;2023-05-20T01:01:29;100812.47;;;12.26;65.15
77360;BME280;66426;51.454;7.266;2023-05-20T01:02:30;100816.25;;;12.22;65.87
77360;BME280;66426;51.454;7.266;2023-05-20T01:03:31;100810.88;;;12.41;64.72
77360;BME280;66426;51.454;7.266;2023-05-20T01:04:32;100807.91;;;12.64;64.12
77360;BME280;66426;51.454;7.266;2023-05-20T01:05:34;100807.91;;;12.64;64.54
77360;BME280;66426;51.454;7.266;2023-05-20T01:06:36;100813.47;;;12.42;65.20
77360;BME280;66426;51.454;7.266;2023-05-20T01:07:37;100813.84;;;12.54;64.46
77360;BME280;66426;51.454;7.266;2023-05-20T01:08:38;100802.56;;;12.63;64.14
77360;BME280;66426;51.454;7.266;2023-05-20T01:09:40;100801.03;;;12.57;64.51
77360;BME280;66426;51.454;7.266;2023-05-20T01:10:43;100802.06;;;12.55;64.44
77360;BME280;66426;51.454;7.266;2023-05-20T01:11:48;100805.75;;;12.54;64.94
77360;BME280;66426;51.454;7.266;2023-05-20T01:12:56;100807.56;;;12.53;64.38
77360;BME280;66426;51.454;7.266;2023-05-20T01:14:05;100809.25;;;12.56;64.65
77360;BME280;66426;51.454;7.266;2023-05-20T01:15:09;100803.97;;;12.52;64.32
77360;BME280;66426;51.454;7.266;2023-05-20T01:16:12;100804.13;;;12.49;64.17
77360;BME280;66426;51.454;7.266;2023-05-20T01:17:15;100806.22;;;12.43;64.81
77360;BME280;66426;51.454;7.266;2023-05-20T01:18:17;100804.44;;;12.43;64.65
77360;BME280;66426;51.454;7.266;2023-05-20T01:19:26;100802.38;;;12.48;64.17
77360;BME280;66426;51.454;7.266;2023-05-20T01:20:28;100799.97;;;12.42;64.63
77360;BME280;66426;51.454;7.266;2023-05-20T01:21:34;100806.22;;;12.43;64.72
77360;BME280;66426;51.454;7.266;2023-05-20T01:22:38;100799.03;;;12.43;65.28
77360;BME280;66426;51.454;7.266;2023-05-20T01:23:40;100801.41;;;12.49;65.25
77360;BME280;66426;51.454;7.266;2023-05-20T01:24:42;100799.59;;;12.50;64.67
77360;BME280;66426;51.454;7.266;2023-05-20T01:25:43;100799.31;;;12.37;65.30
77360;BME280;66426;51.454;7.266;2023-05-20T01:26:45;100803.91;;;12.35;64.88
77360;BME280;66426;51.454;7.266;2023-05-20T01:27:48;100807.78;;;12.29;65.04
77360;BME280;66426;51.454;7.266;2023-05-20T01:28:49;100802.31;;;12.31;65.53
77360;BME280;66426;51.454;7.266;2023-05-20T01:29:51;100806.53;;;12.37;65.24
77360;BME280;66426;51.454;7.266;2023-05-20T01:30:55;100804.94;;;12.33;65.20
77360;BME280;66426;51.454;7.266;2023-05-20T01:31:57;100802.00;;;12.37;65.26
77360;BME280;66426;51.454;7.266;2023-05-20T01:33:01;100807.34;;;12.39;65.25
77360;BME280;66426;51.454;7.266;2023-05-20T01:34:04;100804.13;;;12.49;64.80
77360;BME280;66426;51.454;7.266;2023-05-20T01:35:06;100803.69;;;12.40;64.89
77360;BME280;66426;51.454;7.266;2023-05-20T01:36:08;100802.09;;;12.36;64.98
77360;BME280;66426;51.454;7.266;2023-05-20T01:37:10;100797.63;;;12.35;65.18
77360;BME280;66426;51.454;7.266;2023-05-20T01:38:14;100797.19;;;12.44;64.73
77360;BME280;66426;51.454;7.266;2023-05-20T01:39:16;100796.91;;;12.31;65.49
77360;BME280;66426;51.454;7.266;2023-05-20T01:40:18;100792.97;;;12.19;66.35
77360;BME280;66426;51.454;7.266;2023-05-20T01:41:19;100789.19;;;12.23;65.83
77360;BME280;66426;51.454;7.266;2023-05-20T01:42:21;100792.66;;;12.25;65.31
77360;BME280;66426;51.454;7.266;2023-05-20T01:43:24;100790.03;;;12.24;65.46
77360;BME280;66426;51.454;7.266;2023-05-20T01:44:26;100787.50;;;12.21;65.72
77360;BME280;66426;51.454;7.266;2023-05-20T01:45:27;100787.94;;;12.30;65.07
77360;BME280;66426;51.454;7.266;2023-05-20T01:46:31;100780.84;;;12.09;65.67
77360;BME280;66426;51.454;7.266;2023-05-20T01:47:32;100780.09;;;11.86;66.73
77360;BME280;66426;51.454;7.266;2023-05-20T01:48:33;100780.78;;;12.11;66.10
77360;BME280;66426;51.454;7.266;2023-05-20T01:49:34;100774.91;;;12.20;66.04
77360;BME280;66426;51.454;7.266;2023-05-20T01:50:35;100776.09;;;12.14;65.97
77360;BME280;66426;51.454;7.266;2023-05-20T01:51:36;100773.44;;;12.13;65.25
77360;BME280;66426;51.454;7.266;2023-05-20T01:52:37;100779.44;;;12.19;65.21
77360;BME280;66426;51.454;7.266;2023-05-20T01:53:39;100778.66;;;12.17;65.42
77360;BME280;66426;51.454;7.266;2023-05-20T01:54:40;100768.94;;;12.13;65.57
77360;BME280;66426;51.454;7.266;2023-05-20T01:55:41;100772.94;;;12.04;66.06
77360;BME280;66426;51.454;7.266;2023-05-20T01:56:42;100780.69;;;11.93;66.44
77360;BME280;66426;51.454;7.266;2023-05-20T01:57:43;100777.47;;;12.04;65.87
77360;BME280;66426;51.454;7.266;2023-05-20T01:58:44;100770.97;;;12.08;65.50
77360;BME280;66426;51.454;7.266;2023-05-20T01:59:45;100771.78;;;12.10;65.23
77360;BME280;66426;51.454;7.266;2023-05-20T02:00:47;100770.03;;;12.09;65.58
77360;BME280;66426;51.454;7.266;2023-05-20T02:01:47;100781.78;;;12.08;66.23
77360;BME280;66426;51.454;7.266;2023-05-20T02:02:48;100782.16;;;11.80;66.74
77360;BME280;66426;51.454;7.266;2023-05-20T02:03:49;100775.19;;;11.95;66.18
77360;BME280;66426;51.454;7.266;2023-05-20T02:04:52;100779.22;;;12.05;65.73
77360;BME280;66426;51.454;7.266;2023-05-20T02:05:53;100776.69;;;11.81;66.08
77360;BME280;66426;51.454;7.266;2023-05-20T02:06:54;100785.28;;;11.71;66.55
77360;BME280;66426;51.454;7.266;2023-05-20T02:07:55;100782.63;;;11.90;66.30
77360;BME280;66426;51.454;7.266;2023-05-20T02:08:57;100772.72;;;11.70;66.88
77360;BME280;66426;51.454;7.266;2023-05-20T02:09:58;100775.56;;;11.85;66.76
77360;BME280;66426;51.454;7.266;2023-05-20T02:10:59;100765.91;;;12.00;66.44
77360;BME280;66426;51.454;7.266;2023-05-20T02:12:00;100774.38;;;11.93;66.30
77360;BME280;66426;51.454;7.266;2023-05-20T02:13:01;100768.38;;;11.86;66.37
77360;BME280;66426;51.454;7.266;2023-05-20T02:14:02;100770.59;;;11.97;65.94
77360;BME280;66426;51.454;7.266;2023-05-20T02:15:03;100772.78;;;12.07;65.35
77360;BME280;66426;51.454;7.266;2023-05-20T02:16:05;100768.72;;;11.99;65.73
77360;BME280;66426;51.454;7.266;2023-05-20T02:17:06;100769.00;;;11.93;66.46
77360;BME280;66426;51.454;7.266;2023-05-20T02:18:06;100776.66;;;12.02;65.94
77360;BME280;66426;51.454;7.266;2023-05-20T02:19:07;100779.22;;;12.05;65.53
77360;BME280;66426;51.454;7.266;2023-05-20T02:20:12;100768.13;;;11.92;65.96
77360;BME280;66426;51.454;7.266;2023-05-20T02:21:13;100778.00;;;11.93;66.04
77360;BME280;66426;51.454;7.266;2023-05-20T02:22:14;100781.41;;;11.97;65.93
77360;BME280;66426;51.454;7.266;2023-05-20T02:23:15;100778.53;;;11.81;66.43
77360;BME280;66426;51.454;7.266;2023-05-20T02:24:17;100779.81;;;11.52;67.58
77360;BME280;66426;51.454;7.266;2023-05-20T02:25:20;100779.53;;;11.58;67.39
77360;BME280;66426;51.454;7.266;2023-05-20T02:26:21;100776.56;;;11.64;67.51
77360;BME280;66426;51.454;7.266;2023-05-20T02:27:22;100783.19;;;11.57;68.12
77360;BME280;66426;51.454;7.266;2023-05-20T02:28:23;100779.16;;;11.47;68.36
77360;BME280;66426;51.454;7.266;2023-05-20T02:29:24;100782.59;;;11.50;67.72
77360;BME280;66426;51.454;7.266;2023-05-20T02:30:25;100780.50;;;11.57;67.28
77360;BME280;66426;51.454;7.266;2023-05-20T02:31:26;100783.06;;;11.60;67.15
77360;BME280;66426;51.454;7.266;2023-05-20T02:32:27;100787.91;;;11.52;67.62
77360;BME280;66426;51.454;7.266;2023-05-20T02:33:29;100784.34;;;11.51;67.26
77360;BME280;66426;51.454;7.266;2023-05-20T02:34:30;100789.56;;;11.56;67.41
77360;BME280;66426;51.454;7.266;2023-05-20T02:35:31;100790.47;;;11.55;67.59
77360;BME280;66426;51.454;7.266;2023-05-20T02:36:32;100791.97;;;11.62;67.51
77360;BME280;66426;51.454;7.266;2023-05-20T02:37:33;100788.44;;;11.60;67.19
77360;BME280;66426;51.454;7.266;2023-05-20T02:38:34;100790.94;;;11.64;67.24
77360;BME280;66426;51.454;7.266;2023-05-20T02:39:36;100791.28;;;11.57;67.66
77360;BME280;66426;51.454;7.266;2023-05-20T02:40:38;100792.25;;;11.56;66.96
77360;BME280;66426;51.454;7.266;2023-05-20T02:41:38;100796.94;;;11.71;66.57
77360;BME280;66426;51.454;7.266;2023-05-20T02:42:39;100794.84;;;11.78;66.92
77360;BME280;66426;51.454;7.266;2023-05-20T02:43:40;100791.56;;;11.71;67.19
77360;BME280;66426;51.454;7.266;2023-05-20T02:44:41;100790.78;;;11.68;67.06
77360;BME280;66426;51.454;7.266;2023-05-20T02:45:42;100794.38;;;11.68;67.06
77360;BME280;66426;51.454;7.266;2023-05-20T02:46:43;100794.47;;;11.66;66.92
77360;BME280;66426;51.454;7.266;2023-05-20T02:47:44;100792.09;;;11.59;67.16
77360;BME280;66426;51.454;7.266;2023-05-20T02:48:45;100797.56;;;11.57;66.97
77360;BME280;66426;51.454;7.266;2023-05-20T02:49:45;100805.19;;;11.48;67.43
77360;BME280;66426;51.454;7.266;2023-05-20T02:50:46;100797.19;;;11.46;68.09
77360;BME280;66426;51.454;7.266;2023-05-20T02:51:47;100795.53;;;11.42;68.06
77360;BME280;66426;51.454;7.266;2023-05-20T02:52:48;100788.31;;;11.42;67.46
77360;BME280;66426;51.454;7.266;2023-05-20T02:53:49;100792.56;;;11.48;67.57
77360;BME280;66426;51.454;7.266;2023-05-20T02:54:51;100792.50;;;11.50;67.39
77360;BME280;66426;51.454;7.266;2023-05-20T02:55:52;100786.25;;;11.49;68.24
77360;BME280;66426;51.454;7.266;2023-05-20T02:56:54;100793.25;;;11.53;67.31
77360;BME280;66426;51.454;7.266;2023-05-20T02:57:54;100787.06;;;11.51;67.59
77360;BME280;66426;51.454;7.266;2023-05-20T02:58:55;100784.72;;;11.62;67.59
77360;BME280;66426;51.454;7.266;2023-05-20T02:59:56;100784.38;;;11.70;66.94
77360;BME280;66426;51.454;7.266;2023-05-20T03:00:57;100785.91;;;11.57;67.43
77360;BME280;66426;51.454;7.266;2023-05-20T03:01:58;100785.75;;;11.39;67.95
77360;BME280;66426;51.454;7.266;2023-05-20T03:02:59;100783.34;;;11.54;67.33
77360;BME280;66426;51.454;7.266;2023-05-20T03:04:01;100781.50;;;11.54;67.42
77360;BME280;66426;51.454;7.266;2023-05-20T03:05:02;100782.34;;;11.36;68.32
77360;BME280;66426;51.454;7.266;2023-05-20T03:06:05;100778.97;;;11.51;68.05
77360;BME280;66426;51.454;7.266;2023-05-20T03:07:06;100778.16;;;11.49;67.58
77360;BME280;66426;51.454;7.266;2023-05-20T03:08:08;100776.84;;;11.58;68.12
77360;BME280;66426;51.454;7.266;2023-05-20T03:09:09;100781.84;;;11.67;67.31
77360;BME280;66426;51.454;7.266;2023-05-20T03:10:12;100777.78;;;11.57;67.21
77360;BME280;66426;51.454;7.266;2023-05-20T03:11:13;100778.25;;;11.66;67.57
77360;BME280;66426;51.454;7.266;2023-05-20T03:12:14;100777.63;;;11.41;67.52
77360;BME280;66426;51.454;7.266;2023-05-20T03:13:15;100775.94;;;11.38;68.18
77360;BME280;66426;51.454;7.266;2023-05-20T03:14:16;100782.34;;;11.36;68.01
77360;BME280;66426;51.454;7.266;2023-05-20T03:15:17;100775.66;;;11.44;68.16
77360;BME280;66426;51.454;7.266;2023-05-20T03:16:18;100776.16;;;11.53;68.00
77360;BME280;66426;51.454;7.266;2023-05-20T03:17:19;100763.75;;;11.28;68.25
77360;BME280;66426;51.454;7.266;2023-05-20T03:18:19;100774.56;;;11.49;67.97
77360;BME280;66426;51.454;7.266;2023-05-20T03:19:20;100775.25;;;11.54;67.63
77360;BME280;66426;51.454;7.266;2023-05-20T03:20:22;100770.72;;;11.54;67.34
77360;BME280;66426;51.454;7.266;2023-05-20T03:21:23;100770.72;;;11.54;67.65
77360;BME280;66426;51.454;7.266;2023-05-20T03:22:24;100776.13;;;11.54;67.79
77360;BME280;66426;51.454;7.266;2023-05-20T03:23:25;100779.31;;;11.43;67.81
77360;BME280;66426;51.454;7.266;2023-05-20T03:24:27;100769.97;;;11.30;68.39
77360;BME280;66426;51.454;7.266;2023-05-20T03:25:29;100775.13;;;11.16;68.60
77360;BME280;66426;51.454;7.266;2023-05-20T03:26:30;100770.66;;;11.35;68.27
77360;BME280;66426;51.454;7.266;2023-05-20T03:27:33;100770.00;;;11.51;67.96
77360;BME280;66426;51.454;7.266;2023-05-20T03:28:35;100770.78;;;11.32;68.34
77360;BME280;66426;51.454;7.266;2023-05-20T03:29:36;100768.50;;;11.43;67.92
77360;BME280;66426;51.454;7.266;2023-05-20T03:30:37;100769.22;;;11.47;67.37
77360;BME280;66426;51.454;7.266;2023-05-20T03:31:38;100772.13;;;11.42;66.94
77360;BME280;66426;51.454;7.266;2023-05-20T03:32:39;100763.13;;;11.43;67.62
77360;BME280;66426;51.454;7.266;2023-05-20T03:33:40;100774.03;;;11.20;68.52
77360;BME280;66426;51.454;7.266;2023-05-20T03:34:41;100775.03;;;11.38;68.10
77360;BME280;66426;51.454;7.266;2023-05-20T03:35:42;100773.09;;;11.21;68.55
77360;BME280;66426;51.454;7.266;2023-05-20T03:36:42;100769.50;;;11.20;68.09
77360;BME280;66426;51.454;7.266;2023-05-20T03:37:44;100771.19;;;11.23;68.50
77360;BME280;66426;51.454;7.266;2023-05-20T03:38:45;100763.84;;;11.27;68.45
77360;BME280;66426;51.454;7.266;2023-05-20T03:39:45;100762.88;;;11.07;69.47
77360;BME280;66426;51.454;7.266;2023-05-20T03:40:48;100770.97;;;11.07;69.04
77360;BME280;66426;51.454;7.266;2023-05-20T03:41:49;100770.78;;;11.12;68.94
77360;BME280;66426;51.454;7.266;2023-05-20T03:42:49;100773.28;;;11.16;69.04
77360;BME280;66426;51.454;7.266;2023-05-20T03:43:51;100772.19;;;11.00;69.28
77360;BME280;66426;51.454;7.266;2023-05-20T03:44:52;100769.72;;;11.16;69.02
77360;BME280;66426;51.454;7.266;2023-05-20T03:45:53;100774.09;;;11.18;69.20
77360;BME280;66426;51.454;7.266;2023-05-20T03:46:54;100772.75;;;11.29;68.66
77360;BME280;66426;51.454;7.266;2023-05-20T03:47:55;100761.81;;;11.32;68.39
77360;BME280;66426;51.454;7.266;2023-05-20T03:48:56;100767.41;;;11.27;68.98
77360;BME280;66426;51.454;7.266;2023-05-20T03:49:56;100767.41;;;11.27;68.53
77360;BME280;66426;51.454;7.266;2023-05-20T03:50:57;100759.53;;;11.22;68.89
77360;BME280;66426;51.454;7.266;2023-05-20T03:51:58;100765.06;;;11.19;68.48
77360;BME280;66426;51.454;7.266;2023-05-20T03:52:59;100765.25;;;11.15;68.75
77360;BME280;66426;51.454;7.266;2023-05-20T03:54:00;100765.69;;;11.26;68.49
77360;BME280;66426;51.454;7.266;2023-05-20T03:55:01;100760.13;;;11.29;68.39
77360;BME280;66426;51.454;7.266;2023-05-20T03:56:05;100757.38;;;11.31;68.13
77360;BME280;66426;51.454;7.266;2023-05-20T03:57:06;100761.69;;;11.35;68.05
77360;BME280;66426;51.454;7.266;2023-05-20T03:58:06;100765.53;;;11.09;68.36
77360;BME280;66426;51.454;7.266;2023-05-20T03:59:08;100760.38;;;11.02;68.48
77360;BME280;66426;51.454;7.266;2023-05-20T04:00:10;100765.88;;;11.01;69.14
77360;BME280;66426;51.454;7.266;2023-05-20T04:01:14;100761.63;;;11.16;69.28
77360;BME280;66426;51.454;7.266;2023-05-20T04:02:14;100759.66;;;10.99;69.56
77360;BME280;66426;51.454;7.266;2023-05-20T04:03:15;100753.38;;;10.98;69.58
77360;BME280;66426;51.454;7.266;2023-05-20T04:04:17;100753.53;;;11.16;69.29
77360;BME280;66426;51.454;7.266;2023-05-20T04:05:18;100753.19;;;11.23;69.46
77360;BME280;66426;51.454;7.266;2023-05-20T04:06:19;100746.84;;;11.45;69.14
77360;BME280;66426;51.454;7.266;2023-05-20T04:07:22;100756.56;;;11.49;68.08
77360;BME280;66426;51.454;7.266;2023-05-20T04:08:23;100755.84;;;11.64;67.95
77360;BME280;66426;51.454;7.266;2023-05-20T04:09:25;100753.38;;;11.60;67.74
77360;BME280;66426;51.454;7.266;2023-05-20T04:10:26;100752.19;;;11.47;67.98
77360;BME280;66426;51.454;7.266;2023-05-20T04:11:28;100751.81;;;11.54;67.67
77360;BME280;66426;51.454;7.266;2023-05-20T04:12:29;100760.72;;;11.56;68.46
77360;BME280;66426;51.454;7.266;2023-05-20T04:13:31;100765.13;;;11.38;69.30
77360;BME280;66426;51.454;7.266;2023-05-20T04:14:33;100758.66;;;11.42;68.82
77360;BME280;66426;51.454;7.266;2023-05-20T04:15:37;100767.75;;;11.40;68.64
77360;BME280;66426;51.454;7.266;2023-05-20T04:16:38;100769.19;;;11.49;68.98
77360;BME280;66426;51.454;7.266;2023-05-20T04:17:39;100771.53;;;11.56;68.16
77360;BME280;66426;51.454;7.266;2023-05-20T04:18:40;100768.84;;;11.56;68.29
77360;BME280;66426;51.454;7.266;2023-05-20T04:19:41;100771.78;;;11.50;67.87
77360;BME280;66426;51.454;7.266;2023-05-20T04:20:42;100767.75;;;11.19;68.81
77360;BME280;66426;51.454;7.266;2023-05-20T04:21:43;100768.63;;;11.20;69.40
77360;BME280;66426;51.454;7.266;2023-05-20T04:22:44;100775.94;;;11.38;68.73
77360;BME280;66426;51.454;7.266;2023-05-20T04:23:45;100766.16;;;11.36;68.89
77360;BME280;66426;51.454;7.266;2023-05-20T04:24:45;100771.88;;;11.49;68.49
77360;BME280;66426;51.454;7.266;2023-05-20T04:25:46;100777.66;;;11.60;67.78
77360;BME280;66426;51.454;7.266;2023-05-20T04:26:49;100775.09;;;11.57;68.77
77360;BME280;66426;51.454;7.266;2023-05-20T04:27:51;100773.56;;;11.51;68.24
77360;BME280;66426;51.454;7.266;2023-05-20T04:28:54;100765.19;;;11.37;68.84
77360;BME280;66426;51.454;7.266;2023-05-20T04:29:58;100771.88;;;11.49;68.90
77360;BME280;66426;51.454;7.266;2023-05-20T04:30:59;100769.75;;;11.55;68.38
77360;BME280;66426;51.454;7.266;2023-05-20T04:32:02;100771.13;;;11.45;68.83
77360;BME280;66426;51.454;7.266;2023-05-20T04:33:03;100770.38;;;11.41;68.43
77360;BME280;66426;51.454;7.266;2023-05-20T04:34:04;100771.44;;;11.58;68.60
77360;BME280;66426;51.454;7.266;2023-05-20T04:35:05;100769.50;;;11.61;68.38
77360;BME280;66426;51.454;7.266;2023-05-20T04:36:11;100769.88;;;11.73;67.84
77360;BME280;66426;51.454;7.266;2023-05-20T04:37:15;100761.50;;;11.79;67.83
77360;BME280;66426;51.454;7.266;2023-05-20T04:38:16;100770.56;;;11.57;68.54
77360;BME280;66426;51.454;7.266;2023-05-20T04:39:17;100765.19;;;11.16;69.70
77360;BME280;66426;51.454;7.266;2023-05-20T04:40:20;100770.97;;;11.07;69.67
77360;BME280;66426;51.454;7.266;2023-05-20T04:41:21;100766.34;;;11.31;69.98
77360;BME280;66426;51.454;7.266;2023-05-20T04:42:23;100771.47;;;11.37;68.66
77360;BME280;66426;51.454;7.266;2023-05-20T04:43:24;100770.97;;;11.48;68.65
77360;BME280;66426;51.454;7.266;2023-05-20T04:44:31;100772.13;;;11.42;69.44
77360;BME280;66426;51.454;7.266;2023-05-20T04:45:32;100773.06;;;11.62;68.69
77360;BME280;66426;51.454;7.266;2023-05-20T04:46:33;100767.66;;;11.62;68.38
77360;BME280;66426;51.454;7.266;2023-05-20T04:47:34;100772.56;;;11.73;67.62
77360;BME280;66426;51.454;7.266;2023-05-20T04:48:38;100770.69;;;11.75;68.02
77360;BME280;66426;51.454;7.266;2023-05-20T04:49:39;100771.44;;;11.78;67.66
77360;BME280;66426;51.454;7.266;2023-05-20T04:50:39;100778.16;;;11.68;68.42
77360;BME280;66426;51.454;7.266;2023-05-20T04:51:41;100767.56;;;11.84;68.10
77360;BME280;66426;51.454;7.266;2023-05-20T04:52:43;100767.47;;;11.87;67.62
77360;BME280;66426;51.454;7.266;2023-05-20T04:53:45;100768.44;;;11.84;67.78
77360;BME280;66426;51.454;7.266;2023-05-20T04:54:46;100777.06;;;11.53;69.46
77360;BME280;66426;51.454;7.266;2023-05-20T04:55:48;100771.84;;;11.69;69.13
77360;BME280;66426;51.454;7.266;2023-05-20T04:56:56;100767.78;;;11.79;67.72
77360;BME280;66426;51.454;7.266;2023-05-20T04:57:58;100775.81;;;11.81;68.00
77360;BME280;66426;51.454;7.266;2023-05-20T04:59:00;100781.16;;;11.62;68.16
77360;BME280;66426;51.454;7.266;2023-05-20T05:00:01;100776.72;;;11.61;68.98
77360;BME280;66426;51.454;7.266;2023-05-20T05:01:01;100772.22;;;11.80;68.46
77360;BME280;66426;51.454;7.266;2023-05-20T05:02:03;100774.41;;;11.72;68.07
77360;BME280;66426;51.454;7.266;2023-05-20T05:03:04;100769.50;;;11.80;67.44
77360;BME280;66426;51.454;7.266;2023-05-20T05:04:05;100767.97;;;11.95;68.07
77360;BME280;66426;51.454;7.266;2023-05-20T05:05:06;100768.72;;;11.99;67.79
77360;BME280;66426;51.454;7.266;2023-05-20T05:06:07;100766.59;;;12.05;67.98
77360;BME280;66426;51.454;7.266;2023-05-20T05:07:08;100769.78;;;11.95;67.84
77360;BME280;66426;51.454;7.266;2023-05-20T05:08:09;100768.16;;;12.11;66.79
77360;BME280;66426;51.454;7.266;2023-05-20T05:09:13;100767.31;;;11.90;67.82
77360;BME280;66426;51.454;7.266;2023-05-20T05:10:14;100761.63;;;11.96;67.73
77360;BME280;66426;51.454;7.266;2023-05-20T05:11:15;100769.66;;;11.77;68.16
77360;BME280;66426;51.454;7.266;2023-05-20T05:12:16;100773.31;;;11.97;68.52
77360;BME280;66426;51.454;7.266;2023-05-20T05:13:18;100765.81;;;12.03;67.73
77360;BME280;66426;51.454;7.266;2023-05-20T05:14:19;100771.31;;;12.00;67.95
77360;BME280;66426;51.454;7.266;2023-05-20T05:15:20;100765.34;;;11.94;67.96
77360;BME280;66426;51.454;7.266;2023-05-20T05:16:21;100765.56;;;11.89;67.42
77360;BME280;66426;51.454;7.266;2023-05-20T05:17:22;100768.56;;;12.02;68.31
77360;BME280;66426;51.454;7.266;2023-05-20T05:18:23;100768.06;;;11.94;68.30
77360;BME280;66426;51.454;7.266;2023-05-20T05:19:24;100770.41;;;12.01;68.41
77360;BME280;66426;51.454;7.266;2023-05-20T05:20:25;100764.91;;;12.03;67.96
77360;BME280;66426;51.454;7.266;2023-05-20T05:21:26;100761.53;;;11.98;68.05